createdAt,value
2022-08-28T00:02:27.547Z,15.80
2022-08-28T00:04:54.168Z,15.68
2022-08-28T00:07:20.833Z,15.45
2022-08-28T00:09:47.450Z,16.35
2022-08-28T00:12:14.515Z,16.02
2022-08-28T00:14:41.113Z,15.20
2022-08-28T00:17:07.824Z,14.55
2022-08-28T00:19:38.426Z,14.57
2022-08-28T00:22:06.497Z,14.93
2022-08-28T00:24:33.830Z,12.82
2022-08-28T00:27:19.091Z,13.70
2022-08-28T00:29:45.807Z,13.68
2022-08-28T00:32:13.733Z,11.45
2022-08-28T00:34:40.368Z,13.90
2022-08-28T00:37:07.307Z,12.15
2022-08-28T00:39:34.674Z,12.65
2022-08-28T00:42:01.547Z,13.23
2022-08-28T00:44:29.013Z,12.95
2022-08-28T00:46:58.390Z,11.52
2022-08-28T00:49:29.431Z,12.80
2022-08-28T00:52:05.817Z,11.40
2022-08-28T00:54:36.919Z,12.85
2022-08-28T00:57:07.793Z,11.68
2022-08-28T00:59:34.571Z,11.90
2022-08-28T01:02:01.312Z,12.35
2022-08-28T01:04:32.258Z,11.50
2022-08-28T01:07:02.465Z,12.40
2022-08-28T01:09:31.777Z,12.13
2022-08-28T01:12:06.600Z,12.75
2022-08-28T01:14:36.701Z,14.02
2022-08-28T01:17:04.682Z,13.18
2022-08-28T01:19:38.780Z,15.00
2022-08-28T01:22:15.540Z,14.07
2022-08-28T01:24:44.979Z,14.25
2022-08-28T01:27:11.697Z,15.40
2022-08-28T01:29:38.350Z,14.77
2022-08-28T01:32:05.520Z,14.23
2022-08-28T01:34:34.566Z,14.93
2022-08-28T01:37:03.399Z,14.60
2022-08-28T01:39:30.418Z,16.08
2022-08-28T01:41:59.481Z,15.07
2022-08-28T01:44:28.041Z,15.98
2022-08-28T01:46:57.813Z,16.10
2022-08-28T01:49:24.915Z,16.63
2022-08-28T01:51:52.392Z,15.25
2022-08-28T01:54:21.539Z,16.35
2022-08-28T01:56:48.048Z,16.00
2022-08-28T01:59:15.508Z,16.85
2022-08-28T02:01:43.474Z,17.10
2022-08-28T02:04:10.939Z,15.80
2022-08-28T02:06:38.103Z,16.50
2022-08-28T02:09:07.021Z,14.93
2022-08-28T02:11:45.379Z,16.35
2022-08-28T02:14:14.154Z,15.57
2022-08-28T02:16:40.719Z,15.27
2022-08-28T02:19:07.279Z,14.32
2022-08-28T02:21:35.491Z,15.38
2022-08-28T02:24:02.384Z,16.60
2022-08-28T02:26:30.304Z,15.20
2022-08-28T02:28:56.996Z,14.93
2022-08-28T02:31:23.847Z,16.20
2022-08-28T02:33:50.774Z,14.20
2022-08-28T02:36:17.932Z,15.50
2022-08-28T02:38:45.928Z,16.20
2022-08-28T02:41:13.644Z,15.93
2022-08-28T02:43:40.711Z,16.25
2022-08-28T02:46:07.349Z,16.92
2022-08-28T02:48:36.837Z,17.15
2022-08-28T02:51:07.244Z,17.25
2022-08-28T02:53:34.335Z,16.35
2022-08-28T02:56:02.905Z,18.08
2022-08-28T02:58:32.808Z,17.77
2022-08-28T03:01:01.737Z,18.85
2022-08-28T03:03:31.162Z,20.00
2022-08-28T03:05:59.976Z,18.65
2022-08-28T03:08:27.975Z,18.48
2022-08-28T03:10:55.198Z,18.02
2022-08-28T03:13:23.054Z,18.17
2022-08-28T03:15:55.976Z,17.65
2022-08-28T03:18:25.350Z,17.30
2022-08-28T03:20:53.650Z,17.63
2022-08-28T03:23:26.376Z,17.33
2022-08-28T03:26:00.059Z,18.02
2022-08-28T03:28:29.964Z,17.67
2022-08-28T03:30:57.677Z,16.42
2022-08-28T03:33:25.414Z,17.42
2022-08-28T03:35:52.463Z,17.63
2022-08-28T03:38:19.648Z,16.77
2022-08-28T03:43:14.115Z,17.92
2022-08-28T03:45:41.243Z,17.80
2022-08-28T03:48:08.404Z,19.48
2022-08-28T03:50:36.139Z,19.02
2022-08-28T03:53:02.966Z,19.13
2022-08-28T03:55:30.239Z,20.52
2022-08-28T03:57:56.817Z,21.00
2022-08-28T04:00:25.541Z,22.13
2022-08-28T04:02:52.263Z,19.45
2022-08-28T04:05:19.333Z,21.10
2022-08-28T04:07:46.016Z,22.00
2022-08-28T04:10:12.858Z,21.40
2022-08-28T04:12:39.441Z,23.13
2022-08-28T04:15:07.192Z,22.42
2022-08-28T04:17:34.375Z,24.77
2022-08-28T04:20:04.441Z,23.85
2022-08-28T04:22:31.049Z,22.50
2022-08-28T04:24:57.641Z,21.90
2022-08-28T04:29:52.236Z,24.20
2022-08-28T04:32:18.885Z,23.95
2022-08-28T04:34:45.524Z,23.40
2022-08-28T04:37:12.355Z,23.25
2022-08-28T04:39:38.928Z,23.00
2022-08-28T04:42:05.632Z,24.80
2022-08-28T04:44:32.311Z,20.80
2022-08-28T04:46:58.957Z,21.30
2022-08-28T04:49:25.874Z,22.13
2022-08-28T04:51:52.829Z,21.02
2022-08-28T04:54:20.092Z,22.25
2022-08-28T04:56:46.691Z,23.30
2022-08-28T04:59:13.280Z,22.48
2022-08-28T05:01:44.031Z,22.92
2022-08-28T05:04:12.272Z,22.73
2022-08-28T05:06:46.151Z,23.38
2022-08-28T05:09:20.416Z,22.33
2022-08-28T05:14:01.741Z,20.02
2022-08-28T05:16:28.435Z,20.35
2022-08-28T05:19:00.236Z,19.13
2022-08-28T05:23:56.455Z,16.23
2022-08-28T05:26:23.627Z,16.30
2022-08-28T05:28:55.575Z,15.57
2022-08-28T05:31:26.744Z,16.52
2022-08-28T05:33:53.663Z,16.73
2022-08-28T05:36:22.682Z,17.85
2022-08-28T05:38:50.645Z,18.67
2022-08-28T05:41:30.080Z,18.67
2022-08-28T05:44:03.040Z,19.35
2022-08-28T05:46:30.241Z,22.25
2022-08-28T05:48:57.592Z,22.83
2022-08-28T05:51:28.504Z,21.80
2022-08-28T05:53:57.451Z,22.30
2022-08-28T05:56:29.805Z,22.33
2022-08-28T05:58:57.683Z,22.55
2022-08-28T06:01:28.483Z,22.20
2022-08-28T06:03:57.390Z,21.27
2022-08-28T06:06:25.224Z,21.25
2022-08-28T06:08:58.981Z,20.55
2022-08-28T06:11:30.502Z,21.73
2022-08-28T06:16:19.900Z,22.08
2022-08-28T06:18:46.954Z,20.65
2022-08-28T06:21:13.824Z,20.35
2022-08-28T06:23:41.167Z,19.60
2022-08-28T06:26:08.068Z,18.85
2022-08-28T06:28:34.768Z,18.42
2022-08-28T06:31:23.964Z,18.27
2022-08-28T06:33:50.539Z,17.85
2022-08-28T06:36:17.076Z,17.27
2022-08-28T06:38:46.582Z,18.13
2022-08-28T06:41:13.908Z,18.02
2022-08-28T06:43:40.563Z,17.30
2022-08-28T06:46:07.639Z,16.70
2022-08-28T06:48:34.599Z,17.00
2022-08-28T06:51:02.181Z,16.33
2022-08-28T06:53:30.918Z,17.40
2022-08-28T06:56:08.611Z,16.70
2022-08-28T06:58:38.154Z,16.67
2022-08-28T07:01:12.243Z,17.38
2022-08-28T07:03:42.532Z,17.45
2022-08-28T07:06:12.855Z,15.63
2022-08-28T07:08:40.596Z,14.85
2022-08-28T07:11:26.073Z,15.80
2022-08-28T07:13:54.138Z,15.55
2022-08-28T07:16:24.922Z,15.18
2022-08-28T07:18:52.051Z,15.37
2022-08-28T07:21:18.737Z,14.98
2022-08-28T07:23:46.165Z,16.20
2022-08-28T07:26:17.039Z,15.85
2022-08-28T07:28:45.408Z,15.53
2022-08-28T07:31:20.537Z,15.57
2022-08-28T07:33:47.459Z,14.50
2022-08-28T07:36:29.921Z,15.38
2022-08-28T07:38:59.590Z,15.40
2022-08-28T07:41:29.370Z,13.95
2022-08-28T07:44:15.267Z,12.25
2022-08-28T07:46:42.207Z,13.70
2022-08-28T07:49:09.241Z,14.13
2022-08-28T07:51:36.399Z,14.23
2022-08-28T07:54:04.055Z,12.75
2022-08-28T07:59:03.364Z,12.82
2022-08-28T08:01:31.038Z,12.75
2022-08-28T08:04:01.678Z,11.13
2022-08-28T08:06:34.056Z,10.65
2022-08-28T08:11:18.726Z,10.43
2022-08-28T08:13:48.197Z,10.20
2022-08-28T08:16:23.510Z,10.82
2022-08-28T08:18:51.364Z,12.13
2022-08-28T08:21:19.913Z,11.10
2022-08-28T08:23:47.836Z,11.20
2022-08-28T08:26:20.100Z,8.88
2022-08-28T08:28:47.573Z,10.40
2022-08-28T08:31:19.904Z,11.57
2022-08-28T08:33:49.681Z,12.23
2022-08-28T08:36:19.837Z,10.73
2022-08-28T08:38:47.083Z,11.68
2022-08-28T08:41:23.718Z,11.70
2022-08-28T08:44:00.925Z,10.35
2022-08-28T08:46:39.690Z,10.35
2022-08-28T08:49:15.631Z,9.73
2022-08-28T08:51:46.319Z,9.60
2022-08-28T08:54:16.192Z,11.07
2022-08-28T08:56:44.660Z,11.40
2022-08-28T08:59:16.823Z,11.23
2022-08-28T09:01:50.880Z,10.20
2022-08-28T09:06:39.912Z,10.55
2022-08-28T09:09:18.474Z,9.60
2022-08-28T09:11:56.522Z,10.10
2022-08-28T09:14:33.920Z,9.63
2022-08-28T09:17:01.647Z,9.60
2022-08-28T09:19:28.309Z,9.70
2022-08-28T09:21:54.971Z,10.65
2022-08-28T09:24:28.421Z,9.15
2022-08-28T09:26:56.594Z,9.70
2022-08-28T09:29:33.118Z,10.52
2022-08-28T09:32:17.878Z,10.35
2022-08-28T09:35:18.945Z,10.48
2022-08-28T09:37:45.747Z,9.77
2022-08-28T09:40:51.015Z,9.35
2022-08-28T09:43:27.569Z,9.82
2022-08-28T09:45:59.578Z,10.32
2022-08-28T09:48:41.341Z,8.93
2022-08-28T09:51:21.585Z,8.65
2022-08-28T09:53:57.183Z,8.65
2022-08-28T09:56:35.992Z,8.82
2022-08-28T09:59:07.793Z,8.07
2022-08-28T10:01:46.439Z,8.30
2022-08-28T10:04:16.639Z,9.63
2022-08-28T10:06:56.822Z,8.45
2022-08-28T10:09:36.881Z,8.80
2022-08-28T10:12:37.564Z,8.45
2022-08-28T10:15:17.900Z,8.77
2022-08-28T10:18:18.400Z,9.90
2022-08-28T10:21:03.545Z,9.32
2022-08-28T10:23:58.571Z,8.48
2022-08-28T10:26:36.490Z,10.30
2022-08-28T10:29:11.200Z,9.07
2022-08-28T10:31:46.776Z,9.35
2022-08-28T10:34:46.717Z,9.45
2022-08-28T10:37:31.775Z,9.60
2022-08-28T10:40:04.403Z,8.82
2022-08-28T10:42:43.555Z,10.05
2022-08-28T10:45:15.440Z,10.25
2022-08-28T10:47:46.016Z,10.10
2022-08-28T10:50:22.166Z,9.68
2022-08-28T10:52:55.849Z,10.43
2022-08-28T10:55:37.709Z,9.52
2022-08-28T10:58:24.400Z,9.90
2022-08-28T11:01:01.620Z,10.35
2022-08-28T11:03:35.527Z,9.75
2022-08-28T11:06:13.459Z,8.95
2022-08-28T11:08:40.504Z,8.50
2022-08-28T11:11:13.704Z,8.63
2022-08-28T11:14:02.477Z,8.93
2022-08-28T11:16:30.176Z,9.02
2022-08-28T11:19:17.461Z,9.57
2022-08-28T11:21:52.949Z,9.38
2022-08-28T11:24:38.443Z,9.38
2022-08-28T11:27:31.030Z,9.17
2022-08-28T11:30:09.548Z,9.38
2022-08-28T11:33:00.802Z,10.00
2022-08-28T11:35:27.298Z,10.10
2022-08-28T11:37:54.914Z,9.45
2022-08-28T11:40:30.443Z,9.18
2022-08-28T11:43:15.916Z,9.80
2022-08-28T11:45:46.791Z,9.85
2022-08-28T11:48:36.006Z,9.65
2022-08-28T11:51:07.403Z,9.55
2022-08-28T11:53:33.908Z,9.65
2022-08-28T11:56:31.100Z,8.93
2022-08-28T11:59:13.266Z,8.88
2022-08-28T12:04:13.408Z,7.78
2022-08-28T12:06:49.409Z,8.40
2022-08-28T12:09:37.375Z,8.25
2022-08-28T12:12:24.296Z,8.70
2022-08-28T12:15:07.758Z,8.73
2022-08-28T12:17:45.051Z,8.43
2022-08-28T12:20:20.907Z,9.50
2022-08-28T12:22:54.347Z,8.32
2022-08-28T12:25:31.819Z,8.88
2022-08-28T12:28:03.876Z,8.93
2022-08-28T12:30:40.263Z,8.73
2022-08-28T12:33:28.261Z,9.25
2022-08-28T12:36:02.452Z,9.35
2022-08-28T12:38:32.420Z,8.98
2022-08-28T12:40:59.383Z,8.95
2022-08-28T12:43:34.533Z,9.00
2022-08-28T12:46:29.888Z,9.68
2022-08-28T12:49:02.465Z,9.60
2022-08-28T12:53:50.643Z,8.32
2022-08-28T12:56:20.565Z,9.27
2022-08-28T12:58:48.981Z,9.35
2022-08-28T13:01:21.819Z,8.82
2022-08-28T13:03:56.909Z,8.23
2022-08-28T13:06:29.544Z,8.90
2022-08-28T13:09:07.161Z,8.45
2022-08-28T13:11:39.088Z,8.18
2022-08-28T13:14:08.457Z,8.30
2022-08-28T13:16:44.620Z,8.95
2022-08-28T13:19:25.923Z,9.15
2022-08-28T13:22:00.436Z,9.27
2022-08-28T13:24:27.333Z,9.02
2022-08-28T13:27:09.505Z,9.90
2022-08-28T13:29:36.943Z,10.52
2022-08-28T13:34:31.994Z,9.77
2022-08-28T13:37:01.468Z,10.18
2022-08-28T13:39:30.697Z,11.07
2022-08-28T13:42:07.025Z,9.35
2022-08-28T13:44:36.717Z,10.95
2022-08-28T13:47:06.759Z,9.98
2022-08-28T13:49:34.976Z,10.13
2022-08-28T13:52:07.019Z,9.68
2022-08-28T13:54:34.797Z,10.43
2022-08-28T13:57:02.716Z,10.10
2022-08-28T13:59:29.830Z,8.52
2022-08-28T14:02:18.422Z,9.07
2022-08-28T14:04:45.173Z,10.82
2022-08-28T14:07:13.226Z,10.10
2022-08-28T14:09:40.788Z,10.43
2022-08-28T14:12:08.801Z,10.18
2022-08-28T14:14:37.116Z,10.15
2022-08-28T14:17:04.584Z,10.48
2022-08-28T14:19:31.284Z,11.57
2022-08-28T14:21:57.905Z,11.18
2022-08-28T14:24:24.961Z,11.55
2022-08-28T14:26:51.768Z,12.10
2022-08-28T14:29:19.330Z,11.55
2022-08-28T14:31:46.537Z,11.63
2022-08-28T14:34:17.719Z,12.75
2022-08-28T14:36:44.389Z,12.77
2022-08-28T14:39:12.480Z,12.85
2022-08-28T14:41:44.403Z,12.25
2022-08-28T14:44:11.015Z,12.63
2022-08-28T14:46:37.995Z,12.45
2022-08-28T14:49:10.216Z,10.50
2022-08-28T14:51:38.828Z,11.93
2022-08-28T14:54:05.881Z,10.68
2022-08-28T14:56:32.674Z,9.13
2022-08-28T14:59:00.796Z,11.40
2022-08-28T15:01:40.382Z,11.15
2022-08-28T15:04:13.378Z,10.93
2022-08-28T15:06:42.496Z,9.40
2022-08-28T15:09:13.969Z,11.43
2022-08-28T15:11:43.519Z,11.25
2022-08-28T15:14:10.960Z,11.75
2022-08-28T15:16:45.484Z,9.98
2022-08-28T15:19:15.841Z,11.77
2022-08-28T15:21:49.388Z,12.77
2022-08-28T15:24:18.583Z,13.48
2022-08-28T15:26:45.311Z,13.20
2022-08-28T15:29:12.040Z,13.65
2022-08-28T15:31:42.488Z,14.98
2022-08-28T15:34:13.313Z,14.63
2022-08-28T15:36:42.080Z,17.33
2022-08-28T15:39:28.453Z,16.23
2022-08-28T15:41:56.245Z,16.00
2022-08-28T15:44:23.318Z,14.85
2022-08-28T15:46:55.800Z,17.00
2022-08-28T15:49:24.152Z,17.30
2022-08-28T15:51:52.090Z,18.52
2022-08-28T15:54:20.212Z,18.40
2022-08-28T15:56:46.817Z,17.25
2022-08-28T15:59:17.621Z,18.73
2022-08-28T16:01:47.388Z,18.80
2022-08-28T16:04:14.156Z,21.65
2022-08-28T16:06:41.716Z,19.98
2022-08-28T16:09:09.408Z,21.92
2022-08-28T16:11:38.672Z,22.38
2022-08-28T16:14:05.500Z,21.10
2022-08-28T16:16:32.476Z,23.80
2022-08-28T16:18:59.262Z,24.35
2022-08-28T16:21:28.099Z,22.00
2022-08-28T16:26:17.692Z,23.17
2022-08-28T16:28:47.316Z,21.92
2022-08-28T16:31:20.480Z,20.58
2022-08-28T16:33:49.717Z,20.42
2022-08-28T16:36:17.157Z,19.45
2022-08-28T16:38:46.821Z,18.35
2022-08-28T16:41:22.516Z,13.93
2022-08-28T16:43:50.493Z,14.60
2022-08-28T16:46:23.868Z,12.15
2022-08-28T16:48:51.564Z,11.82
2022-08-28T16:51:19.813Z,11.55
2022-08-28T16:53:47.089Z,9.75
2022-08-28T16:56:17.117Z,9.32
2022-08-28T16:58:45.907Z,9.93
2022-08-28T17:01:13.560Z,8.85
2022-08-28T17:06:10.727Z,10.70
2022-08-28T17:08:37.375Z,11.50
2022-08-28T17:11:04.120Z,9.95
2022-08-28T17:13:30.740Z,10.75
2022-08-28T17:15:57.398Z,12.68
2022-08-28T17:18:24.041Z,11.10
2022-08-28T17:21:09.079Z,12.45
2022-08-28T17:26:06.530Z,11.48
2022-08-28T17:28:33.529Z,11.93
2022-08-28T17:31:00.404Z,13.50
2022-08-28T17:33:27.770Z,12.88
2022-08-28T17:35:55.694Z,14.77
2022-08-28T17:38:22.275Z,17.08
2022-08-28T17:40:48.864Z,19.35
2022-08-28T17:43:15.537Z,13.52
2022-08-28T17:45:42.489Z,11.55
2022-08-28T17:48:09.401Z,9.70
2022-08-28T17:50:36.017Z,9.80
2022-08-28T17:53:02.683Z,10.82
2022-08-28T17:55:29.359Z,10.18
2022-08-28T17:57:56.045Z,11.05
2022-08-28T18:00:22.796Z,10.88
2022-08-28T18:02:50.994Z,11.10
2022-08-28T18:05:18.107Z,10.07
2022-08-28T18:07:44.769Z,10.73
2022-08-28T18:10:12.069Z,10.50
2022-08-28T18:14:52.082Z,10.95
2022-08-28T18:17:19.860Z,10.63
2022-08-28T18:19:46.435Z,11.10
2022-08-28T18:22:13.849Z,9.95
2022-08-28T18:24:41.221Z,10.23
2022-08-28T18:27:09.344Z,11.82
2022-08-28T18:29:36.743Z,12.32
2022-08-28T18:32:10.113Z,11.52
2022-08-28T18:34:36.803Z,13.27
2022-08-28T18:37:03.694Z,12.63
2022-08-28T18:39:30.504Z,13.88
2022-08-28T18:41:58.338Z,12.57
2022-08-28T18:44:27.835Z,13.82
2022-08-28T18:46:54.876Z,13.20
2022-08-28T18:49:21.726Z,13.45
2022-08-28T18:51:48.408Z,11.93
2022-08-28T18:54:18.554Z,11.65
2022-08-28T18:56:48.329Z,12.68
2022-08-28T18:59:20.145Z,15.02
2022-08-28T19:01:46.957Z,13.45
2022-08-28T19:06:57.430Z,13.88
2022-08-28T19:09:30.329Z,11.82
2022-08-28T19:11:59.023Z,12.57
2022-08-28T19:14:28.085Z,13.05
2022-08-28T19:16:55.542Z,12.93
2022-08-28T19:19:27.359Z,12.55
2022-08-28T19:21:54.310Z,12.60
2022-08-28T19:24:22.432Z,12.40
2022-08-28T19:26:49.237Z,11.13
2022-08-28T19:29:16.490Z,12.02
2022-08-28T19:31:46.276Z,11.45
2022-08-28T19:34:13.094Z,13.23
2022-08-28T19:36:43.742Z,11.70
2022-08-28T19:39:10.718Z,14.13
2022-08-28T19:41:37.634Z,13.10
2022-08-28T19:44:05.859Z,14.55
2022-08-28T19:46:34.302Z,14.82
2022-08-28T19:49:04.239Z,15.05
2022-08-28T19:51:30.923Z,14.48
2022-08-28T19:54:02.700Z,15.23
2022-08-28T20:01:30.383Z,18.50
2022-08-28T20:04:01.154Z,19.60
2022-08-28T20:06:33.062Z,20.30
2022-08-28T20:09:01.036Z,19.47
2022-08-28T20:11:30.440Z,21.13
2022-08-28T20:14:04.252Z,21.00
2022-08-28T20:16:34.287Z,21.70
2022-08-28T20:19:02.907Z,22.02
2022-08-28T20:21:36.808Z,22.98
2022-08-28T20:24:09.273Z,22.75
2022-08-28T20:26:37.038Z,21.42
2022-08-28T20:29:06.462Z,20.92
2022-08-28T20:31:33.937Z,18.70
2022-08-28T20:34:03.279Z,20.63
2022-08-28T20:36:29.884Z,20.58
2022-08-28T20:38:56.909Z,23.17
2022-08-28T20:41:26.298Z,20.58
2022-08-28T20:43:52.879Z,22.42
2022-08-28T20:46:19.784Z,23.67
2022-08-28T20:48:46.655Z,23.38
2022-08-28T20:51:13.299Z,24.02
2022-08-28T20:53:40.067Z,24.85
2022-08-28T20:56:09.959Z,23.55
2022-08-28T20:58:37.855Z,24.63
2022-08-28T21:01:05.607Z,26.02
2022-08-28T21:03:32.423Z,23.20
2022-08-28T21:05:59.036Z,25.80
2022-08-28T21:08:25.816Z,26.52
2022-08-28T21:10:52.734Z,26.70
2022-08-28T21:13:19.571Z,28.35
2022-08-28T21:15:46.379Z,30.25
2022-08-28T21:18:13.801Z,27.55
2022-08-28T21:20:40.872Z,30.90
2022-08-28T21:23:07.450Z,34.20
2022-08-28T21:25:34.136Z,33.10
2022-08-28T21:28:04.090Z,35.97
2022-08-28T21:30:31.206Z,34.05
2022-08-28T21:32:58.000Z,37.30
2022-08-28T21:35:24.680Z,36.75
2022-08-28T21:37:51.512Z,36.45
2022-08-28T21:40:19.479Z,36.80
2022-08-28T21:42:46.107Z,36.45
2022-08-28T21:45:13.298Z,38.08
2022-08-28T21:47:41.616Z,37.17
2022-08-28T21:50:08.861Z,39.70
2022-08-28T21:52:35.677Z,41.47
2022-08-28T21:55:08.460Z,46.58
2022-08-28T21:57:35.349Z,46.55
2022-08-28T22:00:02.149Z,41.67
2022-08-28T22:02:29.012Z,43.40
2022-08-28T22:04:55.800Z,45.20
2022-08-28T22:07:22.553Z,46.70
2022-08-28T22:09:49.361Z,47.28
2022-08-28T22:12:16.651Z,47.42
2022-08-28T22:14:43.313Z,50.97
2022-08-28T22:17:11.383Z,51.65
2022-08-28T22:19:39.572Z,52.72
2022-08-28T22:22:25.091Z,51.20
2022-08-28T22:24:51.780Z,53.45
2022-08-28T22:27:18.385Z,49.08
2022-08-28T22:29:45.055Z,53.00
2022-08-28T22:32:11.961Z,52.08
2022-08-28T22:34:41.263Z,51.97
2022-08-28T22:37:11.420Z,51.55
2022-08-28T22:39:42.636Z,46.70
2022-08-28T22:44:32.020Z,46.15
2022-08-28T22:46:58.696Z,48.40
2022-08-28T22:49:25.631Z,43.67
2022-08-28T22:51:52.284Z,44.75
2022-08-28T22:54:18.888Z,45.20
2022-08-28T22:56:45.481Z,45.08
2022-08-28T22:59:12.092Z,48.28
2022-08-28T23:01:42.249Z,42.17
2022-08-28T23:04:09.931Z,39.33
2022-08-28T23:06:39.901Z,39.55
2022-08-28T23:09:08.102Z,36.05
2022-08-28T23:11:35.923Z,35.70
2022-08-28T23:14:03.979Z,33.20
2022-08-28T23:16:31.216Z,31.88
2022-08-28T23:19:08.912Z,35.47
2022-08-28T23:21:36.593Z,36.42
2022-08-28T23:24:10.033Z,28.45
2022-08-28T23:26:36.561Z,31.67
2022-08-28T23:29:03.464Z,32.90
2022-08-28T23:31:30.105Z,31.55
2022-08-28T23:33:56.719Z,35.53
2022-08-28T23:36:23.747Z,32.83
2022-08-28T23:38:50.627Z,33.80
2022-08-28T23:41:18.684Z,31.25
2022-08-28T23:43:45.998Z,31.48
2022-08-28T23:46:16.370Z,30.83
2022-08-28T23:48:43.768Z,28.75
2022-08-28T23:51:14.257Z,32.05
2022-08-28T23:53:43.241Z,29.38
2022-08-28T23:56:10.297Z,29.58
2022-08-28T23:58:37.032Z,32.03
